Search SAA Approval Certificates

  SAA Approval Number: Article Description:
SAA
  e.g. 090843  
 
Model:
 
 
       



Search Results:

Results 17900 - 17920 of 297629.
Approval No.RCM?ModelArticle DescriptionExpiry Date
150872 Y AED01-06W-600GQ Input: 100-240V~ 50/60Hz 0.15A Output: 3-5Vdc, Max 5Vdc, 600mA Constant Current 2020-05-18
150872 Y AED01-06W-650GQ Input: 100-240V~ 50/60Hz 0.15A Output: 3-5Vdc, Max 5Vdc, 650mA Constant Current 2020-05-18
150872 Y AED01-06W-700GQ Power Supply (LED Driver) 2020-05-18
150872 Y AED06-12W-100GQ Input: 100-240V~ 50/60Hz 0.3A Output: 15-36Vdc, Max 36Vdc, 100mA Constant Current 2020-05-18
150872 Y AED06-12W-1050GQ Input: 100-240V~ 50/60Hz 0.3A Output: 3-8Vdc, Max 8Vdc, 1050mA Constant Current 2020-05-18
150872 Y AED06-12W-150GQ Input: 100-240V~ 50/60Hz 0.3A Output: 15-36Vdc, Max 36Vdc, 150mA Constant Current 2020-05-18
150872 Y AED06-12W-200GQ Input: 100-240V~ 50/60Hz 0.3A Output: 15-36Vdc, Max 36Vdc, 200mA Constant Current 2020-05-18
150872 Y AED06-12W-250GQ Input: 100-240V~ 50/60Hz 0.3A Output: 15-36Vdc, Max 36Vdc, 250mA Constant Current or 36Vdc, Max 250mA 9W Constant Voltage 2020-05-18
150872 Y AED06-12W-280GQ Input: 100-240V~ 50/60Hz 0.3A Output: 9-24Vdc, Max 24Vdc, 280mA Constant Current 2020-05-18
150872 Y AED06-12W-300GQ Input: 100-240V~ 50/60Hz 0.3A Output: 9-24Vdc, Max 24Vdc, 300mA Constant Current 2020-05-18
150872 Y AED06-12W-350GQ Input: 100-240V~ 50/60Hz 0.3A Output: 9-24Vdc, Max 24Vdc, 350mA Constant Current or 24Vdc, Max 350mA 8.4W Constant Voltage 2020-05-18
150872 Y AED06-12W-400GQ Input: 100-240V~ 50/60Hz 0.3A Output: 6-16Vdc, Max 16Vdc, 400mA Constant Current 2020-05-18
150872 Y AED06-12W-450GQ Input: 100-240V~ 50/60Hz 0.3A Output: 6-16Vdc, Max 16Vdc, 450mA Constant Current 2020-05-18
150872 Y AED06-12W-500GQ Input: 100-240V~ 50/60Hz 0.3A Output: 6-16Vdc, Max 16Vdc, 500mA Constant Current 2020-05-18
150872 Y AED06-12W-550GQ Input: 100-240V~ 50/60Hz 0.3A Output: 6-12Vdc, Max 12Vdc, 550mA Constant Current 2020-05-18
150872 Y AED06-12W-600GQ Input: 100-240V~ 50/60Hz 0.3A Output: 6-12Vdc, Max 12Vdc, 600mA Constant Current 2020-05-18
150872 Y AED06-12W-650GQ Input: 100-240V~ 50/60Hz 0.3A Output: 6-12Vdc, Max 12Vdc, 650mA Constant Current 2020-05-18
150872 Y AED06-12W-700GQ Input: 100-240V~ 50/60Hz 0.3A Output: 6-12Vdc, Max 12Vdc, 700mA Constant Current or 12Vdc, Max 700mA 8.4W Constant Voltage 2020-05-18
150872 Y AED06-12W-800GQ Input: 100-240V~ 50/60Hz 0.3A Output: 3-8Vdc, Max 8Vdc, 800mA Constant Current 2020-05-18
150872 Y AED06-12W-900GQ Input: 100-240V~ 50/60Hz 0.3A Output: 3-8Vdc, Max 8Vdc, 900mA Constant Current 2020-05-18
< Previous ... 891  892  893  894  895  896  897  898  899  900 ...  Next >